Time;durP1;ratioP1;P1;durP2;ratioP2;P2;SDS_P1;SDS_P2;PMS_P1;PMS_P2;Temp;Humidity;BMP_temperature;BMP_pressure;BME280_temperature;BME280_humidity;BME280_pressure;Samples;Min_cycle;Max_cycle;Signal;HPM_P1;HPM_P2
2021/05/03 00:00:24;;;;;;;2.20;1.40;;;;;;;;;;5153084;27;20206;-69
2021/05/03 00:02:50;;;;;;;1.67;1.57;;;;;;;;;;5143088;27;20235;-69
2021/05/03 00:05:24;;;;;;;2.57;1.60;;;;;;;;;;5114094;27;20207;-69
2021/05/03 00:07:50;;;;;;;2.23;1.53;;;;;;;;;;5132840;27;20207;-68
2021/05/03 00:10:16;;;;;;;1.87;1.57;;;;;;;;;;5132293;27;20203;-68
2021/05/03 00:12:42;;;;;;;5.10;2.10;;;;;;;;;;5113485;28;20636;-69
2021/05/03 00:15:09;;;;;;;1.73;1.47;;;;;;;;;;5131252;27;20302;-69
2021/05/03 00:17:35;;;;;;;1.63;1.53;;;;;;;;;;5113970;27;20298;-69
2021/05/03 00:20:02;;;;;;;1.10;1.00;;;;;;;;;;5132188;27;20254;-68
2021/05/03 00:22:28;;;;;;;2.17;1.57;;;;;;;;;;5113754;27;20221;-68
2021/05/03 00:24:54;;;;;;;1.47;1.17;;;;;;;;;;5112649;27;20762;-69
2021/05/03 00:27:20;;;;;;;1.67;1.50;;;;;;;;;;5131867;27;20257;-69
2021/05/03 00:29:45;;;;;;;2.17;1.97;;;;;;;;;;5113655;27;20542;-69
2021/05/03 00:32:11;;;;;;;2.23;1.50;;;;;;;;;;5113308;27;20213;-69
2021/05/03 00:34:37;;;;;;;1.87;1.43;;;;;;;;;;5112750;27;20237;-70
2021/05/03 00:37:03;;;;;;;1.40;1.30;;;;;;;;;;5131704;27;20215;-69
2021/05/03 00:39:29;;;;;;;1.27;0.73;;;;;;;;;;5131847;27;20195;-70
2021/05/03 00:41:55;;;;;;;1.43;1.33;;;;;;;;;;5113996;27;20636;-70
2021/05/03 00:44:22;;;;;;;0.97;0.87;;;;;;;;;;5112892;27;20324;-70
2021/05/03 00:46:49;;;;;;;1.43;0.73;;;;;;;;;;5131638;27;20223;-69
2021/05/03 00:49:15;;;;;;;1.70;1.27;;;;;;;;;;5118519;27;20621;-69
2021/05/03 00:51:41;;;;;;;2.30;1.27;;;;;;;;;;5133821;27;20682;-69
2021/05/03 00:54:06;;;;;;;1.40;1.13;;;;;;;;;;5151779;27;20217;-70
2021/05/03 00:56:32;;;;;;;1.90;1.53;;;;;;;;;;5132967;27;20246;-69
2021/05/03 00:58:58;;;;;;;1.93;1.50;;;;;;;;;;5152270;27;20213;-70
2021/05/03 01:34:16;;;;;;;1.50;1.23;;;;;;;;;;5107500;27;20558;-69
2021/05/03 01:36:43;;;;;;;1.30;1.10;;;;;;;;;;5107489;28;20318;-67
2021/05/03 01:39:10;;;;;;;1.77;1.53;;;;;;;;;;5107833;28;20214;-70
2021/05/03 01:41:36;;;;;;;2.20;1.43;;;;;;;;;;5106549;28;20697;-67
2021/05/03 01:44:07;;;;;;;1.43;1.23;;;;;;;;;;5107325;28;21026;-69
2021/05/03 01:46:34;;;;;;;0.97;0.87;;;;;;;;;;5106830;28;20773;-70
2021/05/03 01:49:00;;;;;;;2.03;1.20;;;;;;;;;;5110738;28;20199;-68
2021/05/03 01:51:27;;;;;;;2.57;1.90;;;;;;;;;;5126700;27;20739;-69
2021/05/03 01:53:53;;;;;;;1.50;1.30;;;;;;;;;;5126566;28;20310;-70
2021/05/03 01:56:19;;;;;;;2.67;1.57;;;;;;;;;;5127315;27;20247;-69
2021/05/03 01:58:45;;;;;;;1.73;1.60;;;;;;;;;;5127816;27;20211;-70
2021/05/03 02:01:11;;;;;;;1.63;1.17;;;;;;;;;;5126747;28;20250;-70
2021/05/03 02:03:36;;;;;;;1.10;1.00;;;;;;;;;;5111421;27;20280;-69
2021/05/03 02:06:03;;;;;;;2.47;1.37;;;;;;;;;;5105185;28;20700;-69
2021/05/03 02:08:29;;;;;;;1.60;1.03;;;;;;;;;;5107202;28;20210;-70
2021/05/03 02:10:55;;;;;;;2.20;1.43;;;;;;;;;;5107116;28;20555;-70
2021/05/03 02:13:21;;;;;;;1.20;0.77;;;;;;;;;;5106933;28;20837;-69
2021/05/03 02:15:47;;;;;;;1.37;1.27;;;;;;;;;;5106187;28;20302;-70
2021/05/03 02:18:14;;;;;;;1.50;1.40;;;;;;;;;;5107248;28;20239;-69
2021/05/03 02:20:40;;;;;;;0.70;0.60;;;;;;;;;;5106493;28;20724;-69
2021/05/03 02:23:07;;;;;;;2.13;1.73;;;;;;;;;;5106901;28;20200;-70
2021/05/03 02:25:32;;;;;;;0.87;0.87;;;;;;;;;;5105713;28;20691;-70
2021/05/03 02:27:59;;;;;;;0.97;0.87;;;;;;;;;;5107025;28;20200;-69
2021/05/03 02:30:25;;;;;;;1.90;1.63;;;;;;;;;;5106838;28;20268;-68
2021/05/03 02:32:51;;;;;;;1.57;1.30;;;;;;;;;;5106341;28;20761;-69
2021/05/03 02:35:18;;;;;;;1.17;1.03;;;;;;;;;;5105908;28;20200;-70
2021/05/03 02:37:47;;;;;;;3.17;2.23;;;;;;;;;;5106622;28;20421;-70
2021/05/03 02:40:14;;;;;;;3.20;1.20;;;;;;;;;;5105167;28;20200;-69
2021/05/03 02:42:40;;;;;;;2.03;1.20;;;;;;;;;;5105203;28;20304;-69
2021/05/03 02:45:06;;;;;;;1.10;0.80;;;;;;;;;;5095221;28;20210;-69
2021/05/03 02:47:32;;;;;;;2.57;1.50;;;;;;;;;;5092918;28;20224;-70
2021/05/03 02:49:58;;;;;;;0.60;0.60;;;;;;;;;;5102897;28;20204;-70
2021/05/03 02:52:24;;;;;;;1.70;1.10;;;;;;;;;;5113185;27;20223;-70
2021/05/03 02:54:51;;;;;;;2.00;1.50;;;;;;;;;;5108439;28;20211;-70
2021/05/03 02:57:17;;;;;;;1.47;0.80;;;;;;;;;;5093000;28;20423;-70
2021/05/03 02:59:43;;;;;;;1.30;1.00;;;;;;;;;;5092531;28;20754;-70
2021/05/03 03:02:09;;;;;;;0.93;0.83;;;;;;;;;;5091567;28;20207;-70
2021/05/03 03:04:35;;;;;;;1.37;0.93;;;;;;;;;;5091668;28;20211;-70
2021/05/03 03:07:01;;;;;;;1.03;0.97;;;;;;;;;;5074906;28;20632;-68
2021/05/03 03:09:27;;;;;;;1.00;0.90;;;;;;;;;;5090962;28;20201;-69
2021/05/03 03:11:53;;;;;;;1.80;1.37;;;;;;;;;;5091166;28;20219;-70
2021/05/03 03:14:19;;;;;;;2.27;1.40;;;;;;;;;;5090302;28;20693;-68
2021/05/03 03:16:45;;;;;;;0.60;0.60;;;;;;;;;;5092075;28;20316;-70
2021/05/03 03:19:11;;;;;;;1.60;1.03;;;;;;;;;;5092293;28;20192;-70
2021/05/03 03:21:37;;;;;;;1.30;0.90;;;;;;;;;;5090947;28;20422;-70
2021/05/03 03:24:03;;;;;;;1.80;1.17;;;;;;;;;;5092170;28;20204;-70
2021/05/03 03:26:29;;;;;;;0.80;0.73;;;;;;;;;;5091533;28;20301;-69
2021/05/03 03:28:55;;;;;;;1.73;1.33;;;;;;;;;;5092249;28;20212;-71
2021/05/03 03:31:21;;;;;;;0.83;0.73;;;;;;;;;;5092112;28;20212;-68
2021/05/03 03:33:47;;;;;;;0.80;0.70;;;;;;;;;;5091890;28;20688;-69
2021/05/03 03:36:13;;;;;;;0.87;0.87;;;;;;;;;;5091180;28;20228;-69
2021/05/03 03:38:39;;;;;;;1.67;1.43;;;;;;;;;;5091751;28;20216;-70
2021/05/03 03:41:05;;;;;;;1.37;1.27;;;;;;;;;;5091940;28;20729;-67
2021/05/03 03:43:30;;;;;;;1.40;1.20;;;;;;;;;;5091911;28;20293;-68
2021/05/03 03:45:56;;;;;;;1.13;1.00;;;;;;;;;;5090964;28;20256;-68
2021/05/03 03:48:22;;;;;;;1.33;1.10;;;;;;;;;;5090501;28;20263;-69
2021/05/03 03:50:48;;;;;;;0.80;0.80;;;;;;;;;;5109806;28;20203;-71
2021/05/03 03:53:14;;;;;;;0.90;0.90;;;;;;;;;;5111733;28;20212;-70
2021/05/03 03:55:40;;;;;;;7.30;1.77;;;;;;;;;;5109066;28;20220;-70
2021/05/03 03:58:06;;;;;;;0.97;0.93;;;;;;;;;;5110741;28;20565;-68
2021/05/03 04:00:32;;;;;;;1.43;1.20;;;;;;;;;;5111756;28;20195;-69
2021/05/03 04:02:58;;;;;;;1.20;1.10;;;;;;;;;;5101024;28;20274;-69
2021/05/03 04:26:12;;;;;;;0.83;0.70;;;;;;;;;;5089001;28;20598;-70
2021/05/03 04:28:41;;;;;;;1.50;1.00;;;;;;;;;;5090690;28;20287;-69
2021/05/03 04:31:08;;;;;;;1.40;1.30;;;;;;;;;;5090840;28;20211;-70
2021/05/03 04:33:34;;;;;;;0.80;0.80;;;;;;;;;;5090814;28;20311;-70
2021/05/03 04:36:01;;;;;;;1.43;1.13;;;;;;;;;;5090145;28;20713;-69
2021/05/03 04:38:27;;;;;;;1.70;1.40;;;;;;;;;;5090875;28;20291;-69
2021/05/03 04:40:53;;;;;;;1.47;1.37;;;;;;;;;;5090553;28;20554;-69
2021/05/03 04:43:20;;;;;;;1.70;1.20;;;;;;;;;;5090466;28;20975;-69
2021/05/03 04:45:46;;;;;;;1.30;1.10;;;;;;;;;;5089574;28;20246;-69
2021/05/03 04:48:12;;;;;;;2.03;1.53;;;;;;;;;;5090521;28;20253;-69
2021/05/03 04:50:38;;;;;;;2.27;1.33;;;;;;;;;;5107098;28;20231;-68
2021/05/03 04:53:04;;;;;;;1.03;0.93;;;;;;;;;;5110671;28;20740;-69
2021/05/03 04:55:30;;;;;;;0.87;0.80;;;;;;;;;;5109839;28;20204;-70
2021/05/03 04:57:56;;;;;;;1.93;1.07;;;;;;;;;;5109539;28;20247;-69
2021/05/03 05:00:22;;;;;;;2.93;1.13;;;;;;;;;;5110732;28;20204;-70
2021/05/03 05:02:48;;;;;;;0.80;0.77;;;;;;;;;;5101256;28;20208;-70
2021/05/03 05:05:14;;;;;;;1.17;1.07;;;;;;;;;;5089504;28;20307;-69
2021/05/03 05:07:41;;;;;;;1.67;1.53;;;;;;;;;;5088720;28;20208;-70
2021/05/03 05:10:08;;;;;;;1.40;1.10;;;;;;;;;;5088983;28;20204;-68
2021/05/03 05:12:34;;;;;;;2.57;1.07;;;;;;;;;;5090157;28;20323;-70
2021/05/03 05:15:01;;;;;;;2.20;1.30;;;;;;;;;;5089523;28;20200;-69
2021/05/03 05:17:27;;;;;;;3.00;1.70;;;;;;;;;;5089048;28;20311;-69
2021/05/03 05:19:53;;;;;;;1.27;1.17;;;;;;;;;;5090086;28;20200;-69
2021/05/03 05:22:19;;;;;;;1.27;1.17;;;;;;;;;;5090157;28;20209;-70
2021/05/03 05:24:45;;;;;;;1.47;1.13;;;;;;;;;;5087827;28;20252;-68
2021/05/03 05:27:11;;;;;;;1.13;1.03;;;;;;;;;;5089971;28;20212;-68
2021/05/03 05:29:38;;;;;;;1.63;1.50;;;;;;;;;;5090174;28;20205;-68
2021/05/03 05:32:04;;;;;;;0.97;0.97;;;;;;;;;;5089641;28;20273;-67
2021/05/03 05:34:30;;;;;;;0.77;0.77;;;;;;;;;;5088124;28;20206;-67
2021/05/03 05:36:56;;;;;;;1.47;1.37;;;;;;;;;;5089598;28;20232;-68
2021/05/03 05:39:22;;;;;;;0.77;0.63;;;;;;;;;;5088630;28;20218;-71
2021/05/03 05:41:48;;;;;;;1.50;1.27;;;;;;;;;;5088973;28;20666;-67
2021/05/03 05:44:14;;;;;;;1.63;1.10;;;;;;;;;;5089367;28;20248;-69
2021/05/03 05:46:40;;;;;;;2.03;1.00;;;;;;;;;;5089136;28;20263;-70
2021/05/03 05:49:06;;;;;;;1.07;0.97;;;;;;;;;;5088878;28;20287;-69
2021/05/03 05:51:32;;;;;;;1.73;1.17;;;;;;;;;;5089336;28;20254;-70
2021/05/03 05:53:58;;;;;;;0.93;0.93;;;;;;;;;;5089865;28;20204;-71
2021/05/03 05:56:24;;;;;;;1.90;1.43;;;;;;;;;;5089963;28;20243;-70
2021/05/03 05:58:50;;;;;;;1.77;1.43;;;;;;;;;;5090733;28;20257;-68
2021/05/03 06:01:16;;;;;;;2.00;1.37;;;;;;;;;;5090460;28;20212;-70
2021/05/03 06:03:42;;;;;;;1.03;0.93;;;;;;;;;;5088470;28;20831;-69
2021/05/03 06:06:08;;;;;;;3.10;1.53;;;;;;;;;;5087696;28;20281;-69
2021/05/03 06:08:35;;;;;;;2.07;1.30;;;;;;;;;;5089308;28;20228;-69
2021/05/03 06:11:01;;;;;;;1.97;1.70;;;;;;;;;;5089333;28;20205;-68
2021/05/03 06:13:27;;;;;;;2.07;1.50;;;;;;;;;;5089494;28;20257;-69
2021/05/03 06:15:54;;;;;;;1.37;1.27;;;;;;;;;;5088625;28;20584;-69
2021/05/03 06:18:20;;;;;;;3.57;2.03;;;;;;;;;;5088232;28;20272;-69
2021/05/03 06:20:46;;;;;;;2.03;1.40;;;;;;;;;;5091527;28;20764;-69
2021/05/03 06:23:12;;;;;;;1.00;0.90;;;;;;;;;;5093210;28;20224;-69
2021/05/03 06:25:39;;;;;;;2.03;1.53;;;;;;;;;;5091158;28;20227;-69
2021/05/03 06:28:06;;;;;;;2.70;1.63;;;;;;;;;;5092833;28;20300;-69
2021/05/03 06:30:32;;;;;;;2.10;1.90;;;;;;;;;;5093265;28;20208;-67
2021/05/03 06:32:58;;;;;;;4.07;2.07;;;;;;;;;;5092783;28;20216;-68
2021/05/03 06:35:24;;;;;;;1.93;1.50;;;;;;;;;;5091929;28;20204;-68
2021/05/03 06:37:50;;;;;;;1.13;1.03;;;;;;;;;;5092422;28;20232;-68
2021/05/03 06:40:17;;;;;;;1.33;1.07;;;;;;;;;;5092690;28;20292;-68
2021/05/03 06:42:43;;;;;;;3.17;1.43;;;;;;;;;;5087267;28;20312;-68
2021/05/03 06:45:10;;;;;;;2.17;1.50;;;;;;;;;;5071439;28;20296;-70
2021/05/03 06:47:37;;;;;;;1.38;1.27;;;;;;;;;;5074747;28;20234;-70
2021/05/03 06:50:04;;;;;;;2.95;1.58;;;;;;;;;;5090573;28;20201;-69
2021/05/03 06:52:30;;;;;;;2.70;1.35;;;;;;;;;;5090554;28;20239;-70
2021/05/03 06:54:56;;;;;;;1.65;1.42;;;;;;;;;;5091391;28;20232;-70
2021/05/03 06:57:22;;;;;;;2.35;1.85;;;;;;;;;;5092755;28;20638;-69
2021/05/03 06:59:48;;;;;;;2.42;1.60;;;;;;;;;;5093396;28;20278;-70
2021/05/03 07:02:14;;;;;;;2.38;1.80;;;;;;;;;;5092374;28;20248;-70
2021/05/03 07:04:42;;;;;;;3.83;1.65;;;;;;;;;;5091173;28;20228;-70
2021/05/03 07:07:08;;;;;;;1.30;1.20;;;;;;;;;;5091583;28;20266;-70
2021/05/03 07:09:34;;;;;;;1.52;1.23;;;;;;;;;;5093596;28;20235;-70
2021/05/03 07:12:09;;;;;;;1.65;1.55;;;;;;;;;;5090859;28;20209;-70
2021/05/03 07:14:36;;;;;;;1.90;1.40;;;;;;;;;;5091124;28;20689;-69
2021/05/03 07:17:04;;;;;;;1.52;1.42;;;;;;;;;;5093910;28;20301;-69
2021/05/03 07:19:34;;;;;;;1.40;1.20;;;;;;;;;;5092829;28;20207;-70
2021/05/03 07:22:00;;;;;;;1.48;1.20;;;;;;;;;;5094300;28;20200;-68
2021/05/03 07:24:26;;;;;;;2.85;1.63;;;;;;;;;;5093535;28;20857;-68
2021/05/03 07:26:52;;;;;;;2.72;2.03;;;;;;;;;;5093937;28;20220;-69
2021/05/03 07:29:18;;;;;;;1.63;1.33;;;;;;;;;;5094893;28;20207;-70
2021/05/03 07:31:44;;;;;;;2.85;1.40;;;;;;;;;;5094171;28;20232;-68
2021/05/03 07:34:10;;;;;;;1.40;1.15;;;;;;;;;;5093330;28;20564;-68
2021/05/03 07:36:36;;;;;;;1.73;1.40;;;;;;;;;;5093056;28;20231;-70
2021/05/03 07:39:05;;;;;;;1.42;1.33;;;;;;;;;;5093399;28;20292;-69
2021/05/03 07:41:32;;;;;;;1.17;1.08;;;;;;;;;;5092332;28;20283;-68
2021/05/03 07:43:58;;;;;;;1.50;1.25;;;;;;;;;;5076330;28;20217;-69
2021/05/03 07:46:25;;;;;;;2.97;1.25;;;;;;;;;;5071115;28;20271;-69
2021/05/03 07:48:55;;;;;;;1.48;1.38;;;;;;;;;;5075420;28;20201;-69
2021/05/03 07:51:21;;;;;;;3.40;1.70;;;;;;;;;;5113874;28;20200;-69
2021/05/03 07:53:47;;;;;;;1.67;1.30;;;;;;;;;;5113850;28;20353;-69
2021/05/03 07:56:16;;;;;;;1.40;1.30;;;;;;;;;;5112793;28;20306;-69
2021/05/03 07:58:42;;;;;;;2.38;1.63;;;;;;;;;;5113410;28;20691;-69
2021/05/03 08:01:08;;;;;;;1.13;0.95;;;;;;;;;;5113151;28;20919;-70
2021/05/03 08:03:38;;;;;;;1.52;1.40;;;;;;;;;;5097380;28;20729;-71
2021/05/03 08:06:05;;;;;;;1.33;1.13;;;;;;;;;;5092179;28;20231;-71
2021/05/03 08:08:31;;;;;;;2.20;1.45;;;;;;;;;;5093008;28;20196;-72
2021/05/03 08:10:57;;;;;;;4.40;1.48;;;;;;;;;;5091572;28;20204;-68
2021/05/03 08:13:23;;;;;;;2.30;1.40;;;;;;;;;;5092643;28;20672;-71
2021/05/03 08:15:52;;;;;;;1.80;1.23;;;;;;;;;;5091994;28;20268;-71
2021/05/03 08:18:18;;;;;;;2.03;1.13;;;;;;;;;;5092936;28;20236;-69
2021/05/03 08:20:50;;;;;;;1.53;1.20;;;;;;;;;;5093037;28;20212;-70
2021/05/03 08:23:19;;;;;;;1.20;1.10;;;;;;;;;;5091429;28;20723;-70
2021/05/03 08:25:52;;;;;;;1.97;1.10;;;;;;;;;;5091978;28;20223;-70
2021/05/03 08:28:18;;;;;;;1.37;0.97;;;;;;;;;;5092523;28;20883;-69
2021/05/03 08:30:45;;;;;;;2.70;1.07;;;;;;;;;;5091731;28;20200;-67
2021/05/03 08:33:11;;;;;;;1.27;1.10;;;;;;;;;;5092088;28;20208;-68
2021/05/03 08:35:37;;;;;;;1.90;1.33;;;;;;;;;;5091136;28;20228;-70
2021/05/03 08:38:04;;;;;;;1.50;1.20;;;;;;;;;;5092884;28;20254;-70
2021/05/03 08:40:30;;;;;;;1.20;1.00;;;;;;;;;;5092167;28;20325;-70
2021/05/03 08:42:56;;;;;;;0.73;0.73;;;;;;;;;;5084687;28;20598;-70
2021/05/03 08:45:23;;;;;;;1.20;1.10;;;;;;;;;;5071725;28;20201;-69
2021/05/03 08:48:06;;;;;;;1.37;1.10;;;;;;;;;;5072146;28;20233;-70
2021/05/03 08:53:40;;;;;;;1.10;0.95;;;;;;;;;;5112334;28;20203;-68
2021/05/03 08:56:06;;;;;;;1.30;1.17;;;;;;;;;;5111772;28;20220;-68
2021/05/03 08:58:36;;;;;;;2.13;1.23;;;;;;;;;;5112585;28;20253;-69
2021/05/03 09:01:02;;;;;;;1.23;1.13;;;;;;;;;;5112576;28;20204;-69
2021/05/03 09:03:28;;;;;;;5.15;1.58;;;;;;;;;;5097027;28;20723;-68
2021/05/03 09:06:02;;;;;;;1.17;1.02;;;;;;;;;;5091254;28;20228;-69
2021/05/03 09:08:28;;;;;;;1.35;1.20;;;;;;;;;;5092033;28;20205;-68
2021/05/03 09:10:55;;;;;;;1.23;1.10;;;;;;;;;;5091819;28;20261;-69
2021/05/03 09:13:27;;;;;;;1.33;1.20;;;;;;;;;;5091887;28;20235;-68
2021/05/03 09:16:10;;;;;;;2.15;1.45;;;;;;;;;;5090912;28;20611;-68
2021/05/03 09:18:37;;;;;;;1.73;1.30;;;;;;;;;;5091736;28;20211;-68
2021/05/03 09:21:03;;;;;;;2.45;1.33;;;;;;;;;;5091866;28;20205;-68
2021/05/03 09:23:29;;;;;;;1.80;1.17;;;;;;;;;;5091705;28;20281;-68
2021/05/03 09:25:55;;;;;;;1.77;1.35;;;;;;;;;;5090773;28;20274;-68
2021/05/03 09:28:28;;;;;;;2.17;1.17;;;;;;;;;;5091030;28;20295;-69
2021/05/03 09:30:57;;;;;;;3.63;1.38;;;;;;;;;;5087427;28;20288;-70
2021/05/03 09:33:24;;;;;;;3.63;1.40;;;;;;;;;;5087112;28;20368;-70
2021/05/03 09:36:04;;;;;;;1.80;1.13;;;;;;;;;;5087953;28;20307;-69
2021/05/03 09:38:46;;;;;;;1.40;1.27;;;;;;;;;;5089588;28;20287;-70
2021/05/03 09:41:13;;;;;;;1.52;1.42;;;;;;;;;;5088888;28;20302;-69
2021/05/03 09:43:41;;;;;;;2.45;1.50;;;;;;;;;;5088335;28;20310;-70
2021/05/03 09:46:25;;;;;;;4.13;2.05;;;;;;;;;;5089085;28;20225;-71
2021/05/03 09:48:56;;;;;;;2.63;1.65;;;;;;;;;;5090036;28;20200;-70
2021/05/03 09:51:40;;;;;;;7.40;2.55;;;;;;;;;;5100676;28;20284;-70
2021/05/03 09:54:12;;;;;;;1.90;1.70;;;;;;;;;;5086088;28;20856;-70
2021/05/03 09:56:52;;;;;;;1.92;1.52;;;;;;;;;;5091439;28;20762;-70
2021/05/03 09:59:25;;;;;;;1.98;1.27;;;;;;;;;;5093383;28;20253;-69
2021/05/03 10:02:00;;;;;;;2.13;1.60;;;;;;;;;;5093217;28;20706;-71
2021/05/03 10:04:27;;;;;;;3.25;1.80;;;;;;;;;;5091830;28;20346;-70
2021/05/03 10:06:53;;;;;;;1.95;1.50;;;;;;;;;;5092990;28;20725;-70
2021/05/03 10:09:19;;;;;;;2.33;1.20;;;;;;;;;;5092003;28;20607;-70
2021/05/03 10:11:45;;;;;;;1.55;1.15;;;;;;;;;;5092030;28;20200;-70
2021/05/03 10:14:11;;;;;;;1.67;1.17;;;;;;;;;;5091765;28;20287;-70
2021/05/03 10:16:38;;;;;;;2.47;1.57;;;;;;;;;;5092367;28;20320;-70
2021/05/03 10:19:05;;;;;;;1.37;1.13;;;;;;;;;;5093213;28;20223;-70
2021/05/03 10:21:31;;;;;;;1.53;1.40;;;;;;;;;;5093107;28;20398;-70
2021/05/03 10:23:57;;;;;;;1.67;1.23;;;;;;;;;;5093160;28;20242;-70
2021/05/03 10:26:27;;;;;;;1.43;1.20;;;;;;;;;;5092295;28;20235;-70
2021/05/03 10:28:54;;;;;;;2.20;1.47;;;;;;;;;;5091788;28;20799;-70
2021/05/03 10:31:21;;;;;;;1.67;1.10;;;;;;;;;;5093803;28;20201;-71
2021/05/03 10:33:47;;;;;;;1.50;0.90;;;;;;;;;;5092015;28;20304;-71
2021/05/03 10:36:30;;;;;;;1.63;1.20;;;;;;;;;;5090841;28;20314;-71
2021/05/03 10:38:56;;;;;;;1.00;1.00;;;;;;;;;;5092726;28;20795;-70
2021/05/03 10:41:31;;;;;;;1.10;1.00;;;;;;;;;;5091026;28;20258;-70
2021/05/03 10:44:10;;;;;;;1.77;1.17;;;;;;;;;;5092504;28;20270;-70
2021/05/03 10:49:07;;;;;;;0.80;0.80;;;;;;;;;;5094689;28;20195;-70
2021/05/03 10:52:04;;;;;;;0.87;0.87;;;;;;;;;;5112875;28;20239;-70
2021/05/03 10:54:47;;;;;;;1.30;1.20;;;;;;;;;;5105580;28;20205;-70
2021/05/03 10:57:16;;;;;;;1.17;1.07;;;;;;;;;;5091326;28;20232;-69
2021/05/03 10:59:42;;;;;;;1.63;0.97;;;;;;;;;;5092960;28;20244;-70
2021/05/03 11:02:08;;;;;;;4.07;1.77;;;;;;;;;;5092414;28;20222;-69
2021/05/03 11:04:38;;;;;;;1.43;1.20;;;;;;;;;;5090769;28;20285;-70
2021/05/03 11:07:08;;;;;;;1.47;1.10;;;;;;;;;;5090792;28;20244;-70
2021/05/03 11:09:41;;;;;;;1.47;1.17;;;;;;;;;;5092918;28;20303;-67
2021/05/03 11:12:09;;;;;;;2.67;1.47;;;;;;;;;;5092773;28;20196;-69
2021/05/03 11:15:13;;;;;;;2.07;1.00;;;;;;;;;;5084360;28;20190;-70
2021/05/03 11:17:58;;;;;;;2.27;1.00;;;;;;;;;;5079877;28;20785;-70
2021/05/03 11:20:23;;;;;;;1.30;0.93;;;;;;;;;;5082702;28;20257;-70
2021/05/03 11:23:12;;;;;;;1.53;1.10;;;;;;;;;;5081852;28;20220;-70
2021/05/03 11:25:37;;;;;;;1.10;1.00;;;;;;;;;;5080174;28;20262;-70
2021/05/03 11:30:58;;;;;;;0.80;0.80;;;;;;;;;;5081320;28;20253;-70
2021/05/03 11:33:22;;;;;;;1.37;0.83;;;;;;;;;;5082107;28;20265;-71
2021/05/03 11:36:03;;;;;;;1.13;1.03;;;;;;;;;;5080352;28;20254;-69
2021/05/03 11:38:34;;;;;;;1.20;1.10;;;;;;;;;;5081254;28;20304;-70
2021/05/03 11:46:12;;;;;;;1.17;1.07;;;;;;;;;;5080627;28;20239;-69
2021/05/03 11:48:38;;;;;;;2.17;1.27;;;;;;;;;;5078714;28;20221;-69
2021/05/03 11:51:06;;;;;;;1.73;1.30;;;;;;;;;;5084882;28;20575;-70
2021/05/03 11:53:38;;;;;;;1.90;1.30;;;;;;;;;;5079950;28;20619;-69
2021/05/03 11:56:24;;;;;;;1.47;1.20;;;;;;;;;;5079491;28;20221;-70
2021/05/03 11:58:51;;;;;;;1.70;1.20;;;;;;;;;;5064608;28;20753;-70
2021/05/03 12:01:18;;;;;;;1.63;1.03;;;;;;;;;;5079798;28;20737;-70
2021/05/03 12:03:45;;;;;;;2.87;1.53;;;;;;;;;;5080239;28;20216;-69
2021/05/03 12:06:29;;;;;;;3.70;1.40;;;;;;;;;;5080332;28;20296;-69
2021/05/03 12:09:02;;;;;;;1.87;1.20;;;;;;;;;;5082079;28;20239;-69
2021/05/03 12:11:28;;;;;;;2.43;1.30;;;;;;;;;;5080476;28;20662;-70
2021/05/03 12:13:57;;;;;;;2.90;1.60;;;;;;;;;;5081380;28;20736;-70
2021/05/03 12:16:39;;;;;;;1.00;1.00;;;;;;;;;;5078550;28;20304;-70
2021/05/03 12:19:12;;;;;;;2.33;1.30;;;;;;;;;;5080786;28;20224;-71
2021/05/03 12:21:38;;;;;;;1.30;1.20;;;;;;;;;;5081076;28;20196;-70
2021/05/03 12:24:14;;;;;;;2.07;1.40;;;;;;;;;;5079668;28;20245;-70
2021/05/03 12:26:56;;;;;;;1.70;1.17;;;;;;;;;;5078467;28;20216;-71
2021/05/03 12:29:23;;;;;;;1.20;1.00;;;;;;;;;;5081218;28;20292;-70
2021/05/03 12:31:49;;;;;;;2.17;1.33;;;;;;;;;;5079555;28;20283;-71
2021/05/03 12:34:20;;;;;;;1.10;1.00;;;;;;;;;;5079197;28;20209;-69
2021/05/03 12:37:05;;;;;;;1.20;1.00;;;;;;;;;;5079747;28;20308;-68
2021/05/03 12:39:32;;;;;;;1.47;1.20;;;;;;;;;;5079535;28;20200;-70
2021/05/03 12:42:13;;;;;;;0.90;0.73;;;;;;;;;;5079468;28;20209;-71
2021/05/03 12:44:46;;;;;;;1.47;0.90;;;;;;;;;;5079911;28;20673;-70
2021/05/03 12:47:23;;;;;;;1.10;1.00;;;;;;;;;;5087715;28;20311;-71
2021/05/03 12:50:05;;;;;;;1.23;1.13;;;;;;;;;;5095042;28;20204;-69
2021/05/03 12:52:38;;;;;;;3.10;1.17;;;;;;;;;;5087596;28;20243;-68
2021/05/03 12:55:21;;;;;;;4.10;1.63;;;;;;;;;;5088236;28;20232;-70
2021/05/03 12:57:55;;;;;;;2.10;1.13;;;;;;;;;;5089200;28;20188;-68
2021/05/03 13:00:26;;;;;;;1.43;1.03;;;;;;;;;;5088477;28;20226;-69
2021/05/03 13:03:01;;;;;;;2.83;1.07;;;;;;;;;;5089894;28;20212;-70
2021/05/03 13:05:39;;;;;;;0.80;0.80;;;;;;;;;;5089110;28;20847;-72
2021/05/03 13:30:00;;;;;;;2.23;1.47;;;;;;;;;;5089259;28;20303;-69
2021/05/03 13:32:28;;;;;;;1.80;1.53;;;;;;;;;;5089622;28;20246;-69
2021/05/03 13:34:54;;;;;;;3.23;1.70;;;;;;;;;;5088795;28;20710;-69
2021/05/03 13:37:22;;;;;;;1.93;1.40;;;;;;;;;;5089486;28;20548;-69
2021/05/03 13:40:06;;;;;;;1.50;1.40;;;;;;;;;;5088631;28;20204;-68
2021/05/03 13:42:32;;;;;;;3.37;1.47;;;;;;;;;;5089147;28;20228;-69
2021/05/03 13:44:58;;;;;;;1.57;1.17;;;;;;;;;;5089607;28;20232;-68
2021/05/03 13:47:24;;;;;;;1.17;1.07;;;;;;;;;;5089600;28;20221;-69
2021/05/03 13:49:50;;;;;;;1.93;1.13;;;;;;;;;;5089622;28;20204;-68
2021/05/03 13:52:16;;;;;;;1.33;1.10;;;;;;;;;;5089757;28;20204;-69
2021/05/03 13:54:42;;;;;;;2.10;1.23;;;;;;;;;;5088050;28;20204;-69
2021/05/03 13:57:08;;;;;;;2.50;1.30;;;;;;;;;;5088253;28;20250;-72
2021/05/03 13:59:35;;;;;;;1.57;1.10;;;;;;;;;;5089636;28;20201;-69
2021/05/03 14:02:06;;;;;;;1.60;1.00;;;;;;;;;;5088618;28;20283;-69
2021/05/03 14:04:33;;;;;;;1.30;1.00;;;;;;;;;;5089045;28;20594;-72
2021/05/03 14:07:01;;;;;;;0.80;0.80;;;;;;;;;;5088148;28;20224;-70
2021/05/03 14:09:27;;;;;;;1.10;0.90;;;;;;;;;;5089346;28;20240;-69
2021/05/03 14:11:53;;;;;;;1.43;1.07;;;;;;;;;;5089348;28;20205;-69
2021/05/03 14:14:19;;;;;;;1.23;0.63;;;;;;;;;;5087933;28;20211;-69
2021/05/03 14:16:48;;;;;;;1.07;0.67;;;;;;;;;;5087885;28;20221;-70
2021/05/03 14:19:18;;;;;;;0.50;0.50;;;;;;;;;;5089325;28;20295;-69
2021/05/03 14:21:45;;;;;;;1.33;1.00;;;;;;;;;;5089494;28;20285;-69
2021/05/03 14:24:11;;;;;;;1.13;0.67;;;;;;;;;;5089277;28;20312;-71
2021/05/03 14:26:40;;;;;;;1.30;0.77;;;;;;;;;;5088838;28;20224;-69
2021/05/03 14:29:14;;;;;;;1.33;1.00;;;;;;;;;;5089093;28;20283;-69
2021/05/03 14:31:44;;;;;;;1.03;0.77;;;;;;;;;;5087836;28;20264;-70
2021/05/03 14:36:39;;;;;;;2.30;1.30;;;;;;;;;;5075704;28;20860;-71
2021/05/03 14:39:05;;;;;;;0.93;0.77;;;;;;;;;;5068628;28;20886;-71
2021/05/03 14:41:31;;;;;;;10.40;0.93;;;;;;;;;;5071296;28;20703;-69
2021/05/03 14:43:57;;;;;;;0.67;0.60;;;;;;;;;;5086218;28;20228;-70
2021/05/03 14:52:08;;;;;;;1.57;1.13;;;;;;;;;;5112766;28;20287;-71
2021/05/03 14:56:44;;;;;;;0.87;0.80;;;;;;;;;;5087416;28;20317;-72
2021/05/03 14:59:10;;;;;;;1.17;0.93;;;;;;;;;;5082954;28;20212;-72
2021/05/03 15:01:35;;;;;;;0.97;0.80;;;;;;;;;;5072659;28;20274;-71
2021/05/03 15:04:04;;;;;;;1.87;1.10;;;;;;;;;;5090956;28;20216;-72
2021/05/03 15:06:30;;;;;;;1.60;0.70;;;;;;;;;;5087983;28;20233;-69
2021/05/03 15:08:56;;;;;;;2.50;0.97;;;;;;;;;;5081235;28;20732;-70
2021/05/03 15:11:23;;;;;;;1.60;1.03;;;;;;;;;;5092109;28;20208;-70
2021/05/03 15:13:55;;;;;;;1.10;1.00;;;;;;;;;;5092054;28;20200;-73
2021/05/03 15:16:37;;;;;;;2.30;0.80;;;;;;;;;;5090924;28;20225;-71
2021/05/03 15:19:20;;;;;;;1.23;1.03;;;;;;;;;;5090908;28;20291;-71
2021/05/03 15:21:46;;;;;;;1.40;1.03;;;;;;;;;;5091752;28;20289;-70
2021/05/03 15:24:15;;;;;;;1.43;1.13;;;;;;;;;;5091199;28;20641;-68
2021/05/03 15:26:50;;;;;;;1.20;1.10;;;;;;;;;;5089329;28;20723;-68
2021/05/03 15:32:08;;;;;;;1.07;0.87;;;;;;;;;;5091202;28;20204;-70
2021/05/03 15:34:34;;;;;;;1.63;1.10;;;;;;;;;;5090359;28;20324;-70
2021/05/03 15:37:00;;;;;;;1.00;0.90;;;;;;;;;;5089402;28;20333;-70
2021/05/03 15:39:26;;;;;;;0.73;0.73;;;;;;;;;;5090723;28;20702;-70
2021/05/03 15:41:53;;;;;;;1.33;0.73;;;;;;;;;;5089395;28;20253;-70
2021/05/03 15:44:25;;;;;;;0.50;0.50;;;;;;;;;;5088677;28;20228;-70
2021/05/03 15:46:51;;;;;;;2.10;1.30;;;;;;;;;;5090455;28;20691;-71
2021/05/03 15:49:17;;;;;;;1.17;1.03;;;;;;;;;;5095283;28;20298;-71
2021/05/03 15:51:43;;;;;;;0.93;0.87;;;;;;;;;;5109591;28;20556;-69
2021/05/03 15:54:09;;;;;;;1.07;0.97;;;;;;;;;;5110940;28;20207;-71
2021/05/03 15:56:35;;;;;;;1.03;0.83;;;;;;;;;;5091732;28;20334;-71
2021/05/03 15:59:05;;;;;;;1.90;0.97;;;;;;;;;;5109495;28;20208;-70
2021/05/03 16:01:31;;;;;;;1.90;1.13;;;;;;;;;;5111116;28;20211;-71
2021/05/03 16:03:58;;;;;;;1.23;0.90;;;;;;;;;;5091223;28;20224;-72
2021/05/03 16:06:24;;;;;;;2.10;0.90;;;;;;;;;;5087846;28;20303;-71
2021/05/03 16:08:51;;;;;;;1.10;1.00;;;;;;;;;;5090049;28;20584;-71
2021/05/03 16:11:22;;;;;;;0.93;0.87;;;;;;;;;;5090079;28;20200;-70
2021/05/03 16:13:48;;;;;;;1.43;1.13;;;;;;;;;;5090463;28;20283;-70
2021/05/03 16:16:14;;;;;;;1.67;0.90;;;;;;;;;;5089544;28;20554;-70
2021/05/03 16:18:40;;;;;;;1.97;1.40;;;;;;;;;;5090548;28;20287;-71
2021/05/03 16:21:06;;;;;;;0.90;0.80;;;;;;;;;;5090204;28;20625;-71
2021/05/03 16:23:32;;;;;;;1.83;0.97;;;;;;;;;;5090836;28;20210;-71
2021/05/03 16:25:58;;;;;;;6.27;1.33;;;;;;;;;;5089536;28;20630;-71
2021/05/03 16:28:25;;;;;;;1.27;0.90;;;;;;;;;;5088787;28;20266;-70
2021/05/03 16:30:51;;;;;;;1.03;0.93;;;;;;;;;;5088887;28;20233;-71